Airfield :
LOGIN :

Register | Disclaimer

   EN    FR    IT 

 










Legend :    VFR   Marginal VFR   IFR   Intensive IFR   Very Intensive IFR
Visi :
Ceiling :
>= 8 km
>= 3000ft
5 to 8 km
1000 to 3000 ft
1500m to 5 km
500 to 1000 ft
800 to 1500m
200 to 500 ft
< 800m
< 200 ft
Symbols :   Thunderstorms  Fog  Heavy snow  Heavy precipitations  Wind > 20 kt
SIGMETs :     Misc.  Thunderstorms  Icing  Turbulence  Mountain Waves  Volcanic Ashes







- Airport Elevation : 74 ft
- IATA code : EIN


EHEH - Eindhoven

CURRENT METAR :
  • 230025Z AUTO 24001KT 9999 NCD 17/15 Q1022 BLU

EXPIRED METARs :
  • 222355Z AUTO 23001KT 9999 NCD 17/14 Q1022 BLU
  • 222329Z AUTO 35001KT 9999 SCT350/// SCT420/// 17/15 Q1022 BLU
  • 222325Z AUTO 35001KT 9999 NCD 17/15 Q1022 BLU
  • 222315Z AUTO 00000KT 9999 NCD 18/16 Q1022 BLU
  • 222303Z AUTO 35001KT 9999 NCD 18/15 Q1022 BLU
  • 222225Z AUTO 02001KT 9999 NCD 20/16 Q1022 BLU
  • 222155Z AUTO VRB01KT 9999 FEW390 20/16 Q1022 BLU

TAF TAF EHEH
Valid from the 23 at 00:00 until the 24 at 06:00 UTC


222328Z 2300/2406 VRB02KT CAVOK
BECMG 2308/2310 13005KT
BECMG 2317/2319 08006KT
BECMG 2403/2406 12005KT
No reported NOTAMs for that airfield.



MET'MAP, your aeronautical weather chart ! - Copyright ORBIFLY December 2007 - Disclaimer

ORBIFLY MET'MAP TEAM :

Programming & Development : Alexandra Zaïnal
Concept & Development : Baudouin d'Aumeries
Co-Development & Prog : Marc-Olivier Méhu
Technical & hardware support : Manuel Goepfert

Contact : metmap@orbifly.com




SOURCES & CREDITS :

   NOAA